Time;durP1;ratioP1;P1;durP2;ratioP2;P2;SDS_P1;SDS_P2;PMS_P1;PMS_P2;Temp;Humidity;BMP_temperature;BMP_pressure;BME280_temperature;BME280_humidity;BME280_pressure;Samples;Min_cycle;Max_cycle;Signal;HPM_P1;HPM_P2
2021/08/24 00:01:40;;;;;;;1.17;1.08;;;14.20;91.00;;;;;;4928212;28;20175;-83
2021/08/24 00:04:06;;;;;;;1.10;1.00;;;14.10;91.00;;;;;;4937672;29;20082;-83
2021/08/24 00:06:31;;;;;;;1.27;1.00;;;14.20;91.00;;;;;;4936245;29;20023;-83
2021/08/24 00:08:57;;;;;;;0.93;0.93;;;14.10;90.60;;;;;;4934722;28;20031;-83
2021/08/24 00:11:23;;;;;;;1.25;1.13;;;14.10;90.60;;;;;;4951856;28;20098;-83
2021/08/24 00:13:49;;;;;;;1.02;0.88;;;14.00;90.80;;;;;;4960390;28;20729;-83
2021/08/24 00:16:17;;;;;;;1.05;1.05;;;14.00;91.00;;;;;;4954534;28;20048;-82
2021/08/24 00:19:20;;;;;;;1.17;1.10;;;14.00;91.20;;;;;;4951709;28;20023;-83
2021/08/24 00:21:45;;;;;;;1.00;0.90;;;14.10;90.90;;;;;;4934258;29;20036;-82
2021/08/24 00:24:12;;;;;;;1.40;1.23;;;14.00;91.00;;;;;;4954162;28;20070;-82
2021/08/24 00:26:38;;;;;;;1.10;1.00;;;14.00;90.70;;;;;;4930119;29;20027;-83
2021/08/24 00:29:04;;;;;;;1.05;1.05;;;14.00;91.00;;;;;;4950439;28;20050;-83
2021/08/24 00:31:30;;;;;;;1.35;1.10;;;14.00;91.00;;;;;;4949327;28;20035;-83
2021/08/24 00:33:55;;;;;;;1.20;0.93;;;13.90;91.20;;;;;;4931777;29;20031;-83
2021/08/24 00:36:22;;;;;;;1.50;1.40;;;13.90;91.10;;;;;;4948409;28;20381;-82
2021/08/24 00:38:48;;;;;;;0.98;0.93;;;14.00;91.40;;;;;;4936177;29;20039;-82
2021/08/24 00:41:15;;;;;;;1.70;1.60;;;13.90;90.90;;;;;;4960999;28;20126;-83
2021/08/24 00:43:44;;;;;;;0.82;0.82;;;13.90;90.90;;;;;;4938346;28;20019;-83
2021/08/24 00:46:19;;;;;;;2.20;1.48;;;13.80;91.10;;;;;;4933127;29;20031;-83
2021/08/24 00:48:44;;;;;;;1.27;1.17;;;13.80;90.90;;;;;;4932741;29;20559;-83
2021/08/24 00:51:13;;;;;;;1.05;0.98;;;13.80;90.80;;;;;;4944884;28;20063;-83
2021/08/24 00:53:39;;;;;;;1.15;1.05;;;13.80;91.00;;;;;;4944858;28;20039;-83
2021/08/24 00:56:07;;;;;;;1.35;1.10;;;13.80;90.80;;;;;;4934121;29;20499;-83
2021/08/24 00:58:33;;;;;;;;;;;13.70;90.70;;;;;;4969486;28;20051;-83
2021/08/24 01:00:59;;;;;;;3.08;1.10;;;13.70;90.80;;;;;;4934241;29;19969;-83
2021/08/24 01:03:31;;;;;;;1.50;0.98;;;13.80;90.80;;;;;;4930771;28;20034;-82
2021/08/24 01:06:04;;;;;;;1.00;1.00;;;13.70;90.60;;;;;;4938374;28;20051;-82
2021/08/24 01:08:56;;;;;;;2.13;0.80;;;13.70;90.70;;;;;;4956864;28;20118;-82
2021/08/24 01:11:30;;;;;;;2.78;1.05;;;13.80;90.60;;;;;;4939745;29;20495;-82
2021/08/24 01:14:20;;;;;;;0.93;0.93;;;13.80;90.60;;;;;;4936574;28;20476;-82
2021/08/24 01:17:14;;;;;;;1.30;1.20;;;13.80;90.30;;;;;;4919850;29;20071;-82
2021/08/24 01:19:40;;;;;;;1.45;1.10;;;13.80;90.20;;;;;;4927072;29;20115;-82
2021/08/24 01:22:30;;;;;;;0.90;0.90;;;13.80;90.20;;;;;;4911499;29;20480;-83
2021/08/24 01:25:02;;;;;;;2.35;1.23;;;13.80;90.10;;;;;;4920077;29;20029;-82
2021/08/24 01:27:46;;;;;;;1.98;1.00;;;13.70;90.30;;;;;;4916738;29;20044;-83
2021/08/24 01:30:22;;;;;;;1.88;1.15;;;13.60;90.20;;;;;;4920215;29;20484;-83
2021/08/24 01:33:13;;;;;;;1.75;1.00;;;13.60;90.10;;;;;;4919653;29;20187;-83
2021/08/24 01:36:05;;;;;;;1.00;1.00;;;13.70;90.30;;;;;;4917972;29;20071;-82
2021/08/24 01:38:36;;;;;;;2.20;1.10;;;13.70;90.10;;;;;;4913051;29;20107;-83
2021/08/24 01:41:10;;;;;;;1.65;1.10;;;13.60;90.20;;;;;;4920314;29;20039;-82
2021/08/24 01:43:45;;;;;;;1.33;1.13;;;13.60;90.10;;;;;;4937094;29;20060;-82
2021/08/24 01:46:29;;;;;;;1.35;1.20;;;13.50;90.10;;;;;;4916503;29;20817;-82
2021/08/24 01:49:00;;;;;;;1.50;1.25;;;13.50;90.20;;;;;;4925584;29;20024;-83
2021/08/24 01:51:33;;;;;;;1.38;1.27;;;13.50;90.20;;;;;;4925292;29;20064;-83
2021/08/24 01:54:04;;;;;;;2.78;1.48;;;13.50;90.20;;;;;;4918131;29;20058;-83
2021/08/24 01:56:38;;;;;;;1.67;1.08;;;13.40;90.30;;;;;;4932772;29;20127;-82
2021/08/24 01:59:18;;;;;;;2.63;1.45;;;13.40;90.40;;;;;;4914169;29;20135;-82
2021/08/24 02:01:52;;;;;;;1.20;1.10;;;13.30;90.80;;;;;;4910855;29;20111;-82
2021/08/24 02:04:24;;;;;;;1.90;1.20;;;13.20;91.00;;;;;;4940197;29;20090;-83
2021/08/24 02:06:50;;;;;;;1.75;1.48;;;13.30;91.10;;;;;;4929673;29;20036;-82
2021/08/24 02:09:32;;;;;;;1.40;1.30;;;13.20;91.10;;;;;;4938206;29;20075;-82
2021/08/24 02:12:00;;;;;;;1.90;1.42;;;13.30;91.10;;;;;;4936312;29;20051;-83
2021/08/24 02:14:27;;;;;;;2.83;1.42;;;13.30;90.90;;;;;;4916383;28;20481;-82
2021/08/24 02:16:54;;;;;;;2.30;1.63;;;13.30;90.90;;;;;;4938029;29;20035;-82
2021/08/24 02:19:44;;;;;;;2.03;1.30;;;13.20;91.30;;;;;;4952847;29;20036;-82
2021/08/24 02:22:29;;;;;;;1.58;1.38;;;13.20;91.10;;;;;;4951652;28;20046;-82
2021/08/24 02:25:03;;;;;;;2.95;1.38;;;13.30;91.10;;;;;;4951225;28;20035;-83
2021/08/24 02:27:33;;;;;;;1.80;1.52;;;13.20;91.30;;;;;;4945407;28;20028;-83
2021/08/24 02:29:59;;;;;;;2.70;1.60;;;13.20;91.40;;;;;;4929427;29;20485;-83
2021/08/24 02:32:32;;;;;;;1.88;1.35;;;13.30;91.40;;;;;;4952482;28;20051;-83
2021/08/24 02:35:26;;;;;;;1.65;1.55;;;13.20;91.50;;;;;;4952035;28;20031;-84
2021/08/24 02:38:17;;;;;;;2.17;1.98;;;13.30;91.50;;;;;;4941985;28;20369;-83
2021/08/24 02:40:57;;;;;;;2.17;1.50;;;13.30;91.40;;;;;;4940143;29;20028;-82
2021/08/24 02:43:48;;;;;;;2.47;1.73;;;13.30;91.10;;;;;;4957352;28;20031;-82
2021/08/24 02:46:21;;;;;;;1.85;1.70;;;13.30;91.20;;;;;;4950628;28;20024;-83
2021/08/24 02:49:10;;;;;;;2.25;2.05;;;13.10;91.30;;;;;;4949242;28;20100;-82
2021/08/24 02:51:36;;;;;;;3.08;2.42;;;13.10;91.40;;;;;;4943985;28;20382;-83
2021/08/24 02:54:16;;;;;;;2.90;1.90;;;13.20;91.20;;;;;;4941599;29;20059;-83
2021/08/24 02:56:42;;;;;;;5.88;2.10;;;13.20;91.00;;;;;;4956590;28;20028;-83
2021/08/24 02:59:08;;;;;;;2.72;1.75;;;13.20;91.00;;;;;;4942754;28;20081;-83
2021/08/24 03:01:35;;;;;;;3.53;2.42;;;13.30;90.70;;;;;;4928773;28;20475;-83
2021/08/24 03:04:02;;;;;;;3.28;2.40;;;13.30;90.90;;;;;;4944133;28;20034;-83
2021/08/24 03:06:30;;;;;;;3.38;2.60;;;13.20;90.90;;;;;;4948507;28;20028;-83
2021/08/24 03:08:56;;;;;;;2.35;1.85;;;13.30;90.90;;;;;;4949536;28;20492;-83
2021/08/24 03:11:25;;;;;;;3.20;2.22;;;13.30;90.90;;;;;;4932551;29;20551;-83
2021/08/24 03:14:02;;;;;;;3.05;2.38;;;13.30;90.50;;;;;;4939509;28;20114;-83
2021/08/24 03:17:04;;;;;;;4.18;2.85;;;13.20;90.50;;;;;;4930749;29;20039;-83
2021/08/24 03:19:32;;;;;;;5.93;2.60;;;13.20;90.70;;;;;;4918061;29;20045;-83
2021/08/24 03:22:01;;;;;;;4.75;2.80;;;13.20;90.90;;;;;;4907758;29;20067;-83
2021/08/24 03:24:28;;;;;;;5.32;2.90;;;13.20;90.70;;;;;;4931815;29;20016;-83
2021/08/24 03:26:53;;;;;;;4.32;2.38;;;13.20;90.90;;;;;;4925026;29;20032;-83
2021/08/24 03:29:24;;;;;;;4.85;2.60;;;13.20;91.00;;;;;;4917845;29;20028;-83
2021/08/24 03:31:53;;;;;;;6.05;2.92;;;13.20;90.80;;;;;;4921265;28;20040;-83
2021/08/24 03:34:20;;;;;;;5.55;3.17;;;13.20;90.90;;;;;;4914843;29;20027;-83
2021/08/24 03:36:46;;;;;;;3.20;2.60;;;13.00;91.10;;;;;;4938236;29;20032;-83
2021/08/24 03:39:12;;;;;;;5.20;2.60;;;12.90;91.20;;;;;;4918123;29;20052;-83
2021/08/24 03:41:38;;;;;;;3.78;2.88;;;13.00;91.30;;;;;;4917740;29;20051;-83
2021/08/24 03:44:04;;;;;;;5.00;2.75;;;13.00;91.10;;;;;;4922404;29;20031;-83
2021/08/24 03:46:29;;;;;;;3.70;2.65;;;12.90;91.10;;;;;;4924899;29;20031;-83
2021/08/24 03:48:55;;;;;;;4.00;2.90;;;12.90;91.50;;;;;;4899812;29;20028;-83
2021/08/24 03:51:21;;;;;;;4.07;3.08;;;12.90;91.50;;;;;;4900919;29;20043;-83
2021/08/24 03:53:46;;;;;;;4.30;3.00;;;13.00;91.50;;;;;;4925890;29;20055;-83
2021/08/24 03:56:12;;;;;;;5.30;3.33;;;13.00;91.40;;;;;;4901790;29;20028;-83
2021/08/24 03:58:38;;;;;;;3.97;2.60;;;13.00;91.10;;;;;;4915733;29;20047;-83
2021/08/24 04:01:11;;;;;;;4.75;2.97;;;13.00;91.20;;;;;;4932925;28;20474;-81
2021/08/24 04:03:36;;;;;;;4.72;3.20;;;13.00;91.10;;;;;;4916936;29;20067;-81
2021/08/24 04:06:03;;;;;;;5.57;2.67;;;13.00;90.90;;;;;;4906109;29;20067;-82
2021/08/24 04:08:29;;;;;;;7.03;2.83;;;13.10;91.00;;;;;;4924197;29;20079;-82
2021/08/24 04:10:55;;;;;;;4.57;2.95;;;13.00;90.90;;;;;;4907019;29;20035;-82
2021/08/24 04:13:21;;;;;;;5.30;2.75;;;13.00;91.00;;;;;;4917232;29;20032;-82
2021/08/24 04:15:46;;;;;;;4.05;2.65;;;13.00;91.20;;;;;;4937804;28;20051;-82
2021/08/24 04:18:13;;;;;;;5.10;2.92;;;13.00;91.20;;;;;;4949775;28;20031;-82
2021/08/24 04:20:39;;;;;;;5.53;3.17;;;13.10;91.20;;;;;;4965565;28;20055;-82
2021/08/24 04:23:07;;;;;;;4.32;2.90;;;13.10;91.40;;;;;;4965338;28;20450;-82
2021/08/24 04:25:32;;;;;;;4.10;3.08;;;12.90;91.40;;;;;;4965162;28;20024;-82
2021/08/24 04:27:58;;;;;;;4.03;2.90;;;12.90;91.50;;;;;;4952986;28;20090;-82
2021/08/24 04:30:24;;;;;;;4.05;2.90;;;12.90;91.50;;;;;;4957418;28;20587;-82
2021/08/24 04:32:50;;;;;;;5.10;3.33;;;12.90;91.50;;;;;;4963053;28;20690;-83
2021/08/24 04:35:17;;;;;;;4.20;2.58;;;13.00;91.20;;;;;;4948054;28;20031;-83
2021/08/24 04:37:44;;;;;;;4.07;2.97;;;13.00;91.20;;;;;;4960276;28;20050;-83
2021/08/24 04:40:10;;;;;;;4.15;2.90;;;12.90;91.30;;;;;;4949627;28;20543;-83
2021/08/24 04:42:36;;;;;;;4.93;3.20;;;12.90;91.30;;;;;;4945843;29;20031;-83
2021/08/24 04:45:02;;;;;;;5.80;3.38;;;13.00;91.20;;;;;;4975856;28;20491;-83
2021/08/24 04:47:27;;;;;;;4.70;3.08;;;13.00;91.00;;;;;;4958049;28;20023;-83
2021/08/24 04:49:53;;;;;;;5.03;3.00;;;13.00;91.20;;;;;;4962624;28;20491;-83
2021/08/24 04:52:18;;;;;;;3.67;2.92;;;13.10;91.10;;;;;;4966775;28;20098;-83
2021/08/24 04:54:44;;;;;;;4.82;2.80;;;13.10;91.40;;;;;;4966126;28;20404;-82
2021/08/24 04:57:10;;;;;;;5.20;3.10;;;13.10;91.00;;;;;;4960329;28;20085;-82
2021/08/24 04:59:35;;;;;;;3.30;2.83;;;13.10;90.90;;;;;;4956076;28;20027;-82
2021/08/24 05:02:01;;;;;;;5.30;3.13;;;13.00;91.50;;;;;;4968797;28;20130;-83
2021/08/24 05:04:27;;;;;;;4.43;3.00;;;12.90;91.50;;;;;;4977638;28;20033;-83
2021/08/24 05:06:52;;;;;;;4.03;2.72;;;12.90;91.50;;;;;;4954071;28;20086;-83
2021/08/24 05:09:19;;;;;;;4.70;3.22;;;12.90;91.20;;;;;;4953257;29;20020;-82
2021/08/24 05:11:45;;;;;;;7.43;3.83;;;13.00;91.30;;;;;;4953493;29;20050;-83
2021/08/24 05:14:11;;;;;;;5.65;2.85;;;13.00;91.30;;;;;;4954182;28;20111;-83
2021/08/24 05:16:38;;;;;;;4.93;3.40;;;13.00;91.20;;;;;;4952435;28;20051;-83
2021/08/24 05:19:04;;;;;;;6.97;3.80;;;13.00;91.00;;;;;;4961826;28;20086;-83
2021/08/24 05:21:31;;;;;;;5.18;3.45;;;13.00;91.10;;;;;;4951889;29;20571;-82
2021/08/24 05:23:57;;;;;;;6.35;3.35;;;13.00;91.20;;;;;;4959929;28;20062;-82
2021/08/24 05:26:22;;;;;;;7.20;3.20;;;13.00;91.00;;;;;;4958364;28;20047;-82
2021/08/24 05:28:48;;;;;;;5.38;3.08;;;13.00;91.20;;;;;;4963755;28;20023;-82
2021/08/24 05:31:15;;;;;;;4.05;2.97;;;13.00;91.00;;;;;;4947005;28;20107;-82
2021/08/24 05:33:41;;;;;;;5.60;2.80;;;13.00;91.10;;;;;;4944750;28;20114;-82
2021/08/24 05:36:11;;;;;;;5.22;3.40;;;13.10;91.20;;;;;;4955539;28;20062;-82
2021/08/24 05:38:38;;;;;;;5.07;3.22;;;13.10;91.20;;;;;;4951688;28;20369;-82
2021/08/24 05:41:04;;;;;;;10.65;3.70;;;13.10;91.30;;;;;;4944055;28;20046;-83
2021/08/24 05:43:31;;;;;;;5.93;4.15;;;13.00;91.30;;;;;;4976908;28;20484;-81
2021/08/24 05:46:01;;;;;;;7.10;3.80;;;12.90;91.90;;;;;;4956510;28;20034;-82
2021/08/24 05:48:31;;;;;;;6.00;3.88;;;12.90;91.90;;;;;;4946529;28;20031;-82
2021/08/24 05:50:57;;;;;;;7.30;4.20;;;13.00;91.90;;;;;;4939620;28;20590;-82
2021/08/24 05:53:23;;;;;;;8.15;4.43;;;13.00;92.30;;;;;;4938514;28;20644;-83
2021/08/24 05:55:49;;;;;;;5.68;4.07;;;12.90;92.00;;;;;;4939238;28;20031;-83
2021/08/24 05:58:16;;;;;;;6.32;3.97;;;12.90;92.30;;;;;;4948661;28;20114;-83
2021/08/24 06:00:42;;;;;;;6.63;3.80;;;12.90;92.30;;;;;;4953665;28;20085;-83
2021/08/24 06:03:08;;;;;;;5.97;4.07;;;12.80;92.00;;;;;;4942951;28;20031;-82
2021/08/24 06:05:38;;;;;;;6.18;4.03;;;12.90;92.40;;;;;;4951817;28;20031;-82
2021/08/24 06:08:05;;;;;;;5.03;3.78;;;12.80;92.50;;;;;;4946898;28;20250;-83
2021/08/24 06:10:30;;;;;;;5.53;4.10;;;12.80;92.60;;;;;;4946420;28;20027;-83
2021/08/24 06:12:56;;;;;;;5.88;3.60;;;12.80;92.10;;;;;;4966690;28;20050;-83
2021/08/24 06:15:22;;;;;;;5.93;4.03;;;12.80;92.50;;;;;;4948591;28;20559;-83
2021/08/24 06:17:48;;;;;;;6.07;4.28;;;12.80;92.60;;;;;;4949671;28;20030;-83
2021/08/24 06:20:14;;;;;;;7.60;4.28;;;12.70;92.50;;;;;;4950846;28;20032;-83
2021/08/24 06:22:40;;;;;;;5.80;4.20;;;12.70;92.70;;;;;;4946005;28;20035;-82
2021/08/24 06:25:06;;;;;;;7.43;4.38;;;12.70;93.00;;;;;;4956931;28;20173;-83
2021/08/24 06:27:32;;;;;;;7.43;4.30;;;12.70;92.80;;;;;;4973657;28;20026;-83
2021/08/24 06:29:58;;;;;;;5.35;3.72;;;12.70;93.20;;;;;;4942944;28;20106;-82
2021/08/24 06:32:36;;;;;;;6.93;4.00;;;12.70;92.90;;;;;;4949402;28;20191;-84
2021/08/24 06:35:03;;;;;;;6.80;4.50;;;12.70;93.20;;;;;;4947880;28;20035;-83
2021/08/24 06:37:29;;;;;;;7.97;4.85;;;12.70;92.90;;;;;;4950231;28;20031;-82
2021/08/24 06:39:55;;;;;;;9.52;4.22;;;12.70;93.20;;;;;;4951234;28;20041;-84
2021/08/24 06:42:20;;;;;;;7.13;3.92;;;12.70;93.40;;;;;;4943377;28;20034;-83
2021/08/24 06:44:46;;;;;;;7.80;4.40;;;12.70;93.60;;;;;;4960690;28;20079;-83
2021/08/24 06:47:12;;;;;;;7.70;4.93;;;12.80;93.40;;;;;;4959182;28;20042;-83
2021/08/24 06:49:38;;;;;;;9.27;4.80;;;12.80;93.20;;;;;;4952243;28;20085;-83
2021/08/24 06:52:05;;;;;;;7.85;4.20;;;12.70;93.40;;;;;;4956315;28;20027;-83
2021/08/24 06:54:32;;;;;;;6.13;5.13;;;12.80;93.40;;;;;;4961322;28;20113;-83
2021/08/24 06:56:58;;;;;;;8.27;4.88;;;12.80;93.50;;;;;;4944531;28;20035;-83
2021/08/24 06:59:24;;;;;;;8.23;5.68;;;12.90;93.90;;;;;;4953361;28;20093;-83
2021/08/24 07:01:50;;;;;;;8.80;4.90;;;12.90;93.50;;;;;;4945247;28;20043;-83
2021/08/24 07:04:16;;;;;;;7.45;4.80;;;12.80;93.00;;;;;;4965475;28;20732;-82
2021/08/24 07:06:47;;;;;;;7.97;5.20;;;12.90;93.30;;;;;;4962380;28;20039;-82
2021/08/24 07:09:14;;;;;;;9.18;5.80;;;12.90;93.70;;;;;;4944848;28;20042;-82
2021/08/24 07:11:40;;;;;;;7.85;5.40;;;12.90;92.90;;;;;;4955181;28;20040;-82
2021/08/24 07:14:06;;;;;;;8.82;5.32;;;12.90;92.90;;;;;;4962930;28;20035;-82
2021/08/24 07:16:31;;;;;;;7.85;5.30;;;13.00;93.20;;;;;;4950753;28;20801;-82
2021/08/24 07:18:57;;;;;;;9.23;5.25;;;12.90;93.10;;;;;;4969309;28;20046;-82
2021/08/24 07:21:24;;;;;;;8.55;5.32;;;12.90;93.40;;;;;;4947960;28;20467;-82
2021/08/24 07:23:50;;;;;;;10.23;6.00;;;13.00;93.20;;;;;;4953713;28;20035;-83
2021/08/24 07:26:17;;;;;;;9.45;6.13;;;13.00;93.20;;;;;;4947756;28;20079;-83
2021/08/24 07:28:43;;;;;;;8.75;6.53;;;13.10;93.50;;;;;;4951261;29;20132;-83
2021/08/24 07:31:10;;;;;;;10.02;6.40;;;13.10;93.20;;;;;;4954139;28;20481;-83
2021/08/24 07:33:36;;;;;;;8.73;5.88;;;13.10;93.30;;;;;;4957114;28;20027;-82
2021/08/24 07:36:03;;;;;;;10.50;6.00;;;13.20;92.70;;;;;;4966543;28;20034;-83
2021/08/24 07:38:29;;;;;;;9.27;5.93;;;13.20;92.70;;;;;;4946957;28;20051;-83
2021/08/24 07:40:55;;;;;;;8.75;6.45;;;13.10;92.80;;;;;;4946844;28;20031;-83
2021/08/24 07:43:22;;;;;;;8.75;5.85;;;13.20;93.50;;;;;;4951097;28;20039;-82
2021/08/24 07:45:48;;;;;;;10.25;6.32;;;13.30;93.20;;;;;;4946843;28;20036;-83
2021/08/24 07:48:14;;;;;;;10.13;6.65;;;13.20;92.90;;;;;;4948636;28;20412;-83
2021/08/24 07:50:40;;;;;;;10.98;7.10;;;13.30;92.80;;;;;;4968780;28;20078;-84
2021/08/24 07:53:06;;;;;;;10.43;7.10;;;13.20;92.60;;;;;;4963254;28;20118;-83
2021/08/24 07:55:32;;;;;;;9.68;6.18;;;13.30;93.20;;;;;;4976510;28;20114;-83
2021/08/24 07:57:57;;;;;;;8.80;5.97;;;13.30;93.30;;;;;;4949513;28;20039;-83
2021/08/24 08:00:23;;;;;;;9.27;7.20;;;13.30;92.80;;;;;;4954148;28;20023;-83
2021/08/24 08:02:50;;;;;;;10.32;7.10;;;13.40;93.70;;;;;;4938001;28;20035;-83
2021/08/24 08:05:17;;;;;;;11.82;6.40;;;13.40;93.80;;;;;;4943244;28;20023;-83
2021/08/24 08:07:43;;;;;;;10.90;6.72;;;13.50;93.30;;;;;;4957438;28;20058;-83
2021/08/24 08:10:10;;;;;;;10.85;6.18;;;13.50;93.10;;;;;;4951569;28;20027;-83
2021/08/24 08:12:36;;;;;;;12.07;5.95;;;13.60;93.80;;;;;;4950443;28;20123;-83
2021/08/24 08:15:05;;;;;;;9.50;7.22;;;13.50;92.90;;;;;;4951154;28;20130;-83
2021/08/24 08:17:32;;;;;;;;;;;13.60;93.10;;;;;;4938395;29;20637;-83
2021/08/24 08:19:58;;;;;;;9.30;6.28;;;13.60;93.70;;;;;;4962015;28;20363;-83
2021/08/24 08:22:24;;;;;;;9.27;6.75;;;13.60;93.10;;;;;;4951651;28;20035;-83
2021/08/24 08:24:49;;;;;;;12.02;7.18;;;13.60;93.30;;;;;;4947463;28;20392;-83
2021/08/24 08:27:15;;;;;;;11.07;7.07;;;13.60;93.50;;;;;;4957769;28;20023;-83
2021/08/24 08:29:41;;;;;;;9.40;6.45;;;13.60;93.20;;;;;;4951884;28;20147;-83
2021/08/24 08:32:13;;;;;;;13.85;7.00;;;13.60;93.20;;;;;;4948976;28;20047;-83
2021/08/24 08:34:39;;;;;;;9.90;6.70;;;13.60;93.10;;;;;;4972833;28;20047;-83
2021/08/24 08:37:06;;;;;;;9.40;6.95;;;13.60;93.40;;;;;;4953765;28;20094;-83
2021/08/24 08:39:32;;;;;;;11.27;7.47;;;13.50;93.30;;;;;;4954573;28;20039;-83
2021/08/24 08:42:13;;;;;;;12.65;7.20;;;13.50;92.60;;;;;;4944964;28;20093;-83
2021/08/24 08:44:57;;;;;;;10.50;7.13;;;13.40;92.90;;;;;;4954893;28;20034;-83
2021/08/24 08:47:31;;;;;;;13.32;7.72;;;13.50;93.60;;;;;;4945959;28;20051;-83
2021/08/24 08:50:06;;;;;;;12.18;8.10;;;13.50;93.10;;;;;;4949369;28;20031;-83
2021/08/24 08:52:42;;;;;;;12.63;8.02;;;13.50;93.50;;;;;;4948627;28;20031;-83
2021/08/24 08:55:49;;;;;;;12.32;8.00;;;13.50;93.50;;;;;;4954515;28;20036;-84
2021/08/24 08:58:52;;;;;;;12.10;7.28;;;13.60;93.20;;;;;;4969662;28;20144;-83
2021/08/24 09:01:31;;;;;;;12.10;7.40;;;13.60;93.20;;;;;;4961871;28;20050;-83
2021/08/24 09:04:37;;;;;;;11.75;7.68;;;13.60;93.50;;;;;;4966342;28;20398;-83
2021/08/24 09:07:43;;;;;;;11.23;8.00;;;13.60;93.10;;;;;;4955870;28;20306;-83
2021/08/24 09:10:14;;;;;;;12.68;8.13;;;13.70;93.30;;;;;;4929848;29;20115;-83
2021/08/24 09:12:40;;;;;;;13.90;8.45;;;13.70;93.30;;;;;;4950994;28;20043;-83
2021/08/24 09:15:16;;;;;;;11.38;8.45;;;13.70;93.40;;;;;;4946246;28;20090;-82
2021/08/24 09:17:41;;;;;;;10.73;8.02;;;13.80;93.70;;;;;;4945144;28;20028;-82
2021/08/24 09:20:25;;;;;;;10.95;7.40;;;13.80;93.50;;;;;;4949008;28;20740;-83
2021/08/24 09:22:51;;;;;;;10.40;7.13;;;13.80;93.20;;;;;;4953265;29;20047;-83
2021/08/24 09:25:24;;;;;;;11.32;7.25;;;13.90;93.70;;;;;;4946959;29;20027;-83
2021/08/24 09:27:52;;;;;;;13.52;7.20;;;13.90;93.80;;;;;;4933328;28;20031;-83
2021/08/24 09:30:18;;;;;;;13.55;7.72;;;13.90;93.20;;;;;;4937925;29;20027;-83
2021/08/24 09:32:44;;;;;;;10.68;7.40;;;13.90;93.30;;;;;;4941037;28;20059;-84
2021/08/24 09:35:26;;;;;;;9.55;6.65;;;13.90;92.90;;;;;;4929120;29;20035;-84
2021/08/24 09:37:52;;;;;;;12.80;7.45;;;13.90;93.00;;;;;;4934062;29;20027;-84
2021/08/24 09:40:37;;;;;;;8.80;6.90;;;14.00;94.00;;;;;;4926303;29;20046;-84
2021/08/24 09:43:24;;;;;;;11.82;7.53;;;14.00;93.00;;;;;;4949423;28;20039;-84
2021/08/24 09:46:01;;;;;;;10.70;7.05;;;14.00;93.60;;;;;;4951204;28;20027;-84
2021/08/24 09:48:29;;;;;;;11.43;7.32;;;14.00;92.90;;;;;;4938321;28;20086;-83
2021/08/24 09:51:38;;;;;;;10.02;7.35;;;14.00;93.10;;;;;;4950943;28;20082;-83
2021/08/24 09:54:26;;;;;;;9.93;6.82;;;14.00;93.20;;;;;;4940140;28;20092;-83
2021/08/24 09:56:54;;;;;;;9.60;6.78;;;14.00;92.90;;;;;;4933457;29;20062;-83
2021/08/24 09:59:28;;;;;;;11.13;7.10;;;14.00;93.00;;;;;;4939475;29;20054;-83
2021/08/24 10:01:54;;;;;;;11.20;7.55;;;14.10;92.80;;;;;;4937283;28;20114;-83
2021/08/24 10:04:20;;;;;;;13.85;7.82;;;14.10;93.20;;;;;;4956296;28;20027;-83
2021/08/24 10:07:05;;;;;;;12.70;7.95;;;14.20;93.00;;;;;;4955662;28;20031;-83
2021/08/24 10:09:37;;;;;;;13.07;8.15;;;14.30;93.20;;;;;;4932184;29;20496;-84
2021/08/24 10:12:22;;;;;;;12.88;7.75;;;14.30;92.20;;;;;;4928582;28;20040;-83
2021/08/24 10:14:51;;;;;;;13.00;9.07;;;14.40;92.80;;;;;;4944615;28;20086;-83
2021/08/24 10:17:34;;;;;;;11.38;8.10;;;14.50;92.30;;;;;;4944131;29;20119;-83
2021/08/24 10:20:03;;;;;;;10.73;8.05;;;14.60;92.50;;;;;;4967088;28;20038;-83
2021/08/24 10:22:37;;;;;;;11.25;8.82;;;14.60;92.50;;;;;;4941135;28;20032;-83
2021/08/24 10:25:09;;;;;;;10.60;8.32;;;14.60;91.60;;;;;;4947937;28;20046;-83
2021/08/24 10:27:57;;;;;;;12.85;9.40;;;14.60;92.00;;;;;;4970935;28;20027;-82
2021/08/24 10:30:38;;;;;;;11.85;8.60;;;14.60;91.70;;;;;;4969164;28;20050;-83
2021/08/24 10:33:04;;;;;;;11.63;8.38;;;14.70;90.70;;;;;;4944036;28;20023;-83
2021/08/24 10:35:36;;;;;;;9.90;8.60;;;14.70;91.30;;;;;;4945143;28;20083;-82
2021/08/24 10:38:02;;;;;;;10.55;7.85;;;14.90;91.00;;;;;;4967067;28;20027;-82
2021/08/24 10:40:42;;;;;;;13.02;10.20;;;15.10;90.50;;;;;;4955894;28;20031;-82
2021/08/24 10:43:10;;;;;;;11.35;8.23;;;15.40;92.10;;;;;;4951470;28;20023;-82
2021/08/24 10:45:40;;;;;;;12.57;8.57;;;15.40;90.60;;;;;;4952186;28;20019;-82
2021/08/24 10:48:18;;;;;;;12.35;8.98;;;15.40;90.80;;;;;;4956537;28;20023;-84
2021/08/24 10:50:57;;;;;;;11.68;8.63;;;15.50;90.10;;;;;;4957311;28;20429;-82
2021/08/24 10:53:50;;;;;;;10.20;7.57;;;15.50;90.10;;;;;;4949725;28;20122;-83
2021/08/24 10:56:53;;;;;;;11.25;8.23;;;15.50;88.80;;;;;;4954891;28;20038;-83
2021/08/24 10:59:50;;;;;;;10.98;9.18;;;15.50;90.60;;;;;;4952048;28;20031;-83
2021/08/24 11:02:24;;;;;;;11.18;9.35;;;15.50;90.40;;;;;;4956429;28;20059;-83
2021/08/24 11:05:15;;;;;;;9.45;7.38;;;15.50;90.20;;;;;;4951788;28;20037;-82
2021/08/24 11:08:02;;;;;;;8.73;7.30;;;15.40;90.30;;;;;;4939767;28;20047;-83
2021/08/24 11:10:49;;;;;;;11.83;8.17;;;15.50;90.30;;;;;;4953921;28;20110;-83
2021/08/24 11:13:27;;;;;;;8.68;7.45;;;15.50;91.30;;;;;;4961592;28;20106;-83
2021/08/24 11:16:09;;;;;;;10.10;7.57;;;15.50;90.50;;;;;;4948333;28;20051;-83
2021/08/24 11:18:49;;;;;;;9.82;7.25;;;15.40;90.80;;;;;;4954649;28;20035;-83
2021/08/24 11:21:24;;;;;;;11.13;7.72;;;15.40;90.50;;;;;;4960437;28;20520;-83
2021/08/24 11:24:01;;;;;;;10.65;6.80;;;15.40;90.20;;;;;;4947767;28;20476;-82
2021/08/24 11:26:54;;;;;;;9.93;7.68;;;15.40;90.70;;;;;;4973491;28;20023;-84
2021/08/24 11:29:44;;;;;;;11.73;8.57;;;15.50;90.60;;;;;;4958532;28;20027;-83
2021/08/24 11:32:28;;;;;;;11.77;8.13;;;15.50;90.70;;;;;;4965425;28;20419;-84
2021/08/24 11:35:11;;;;;;;9.07;8.05;;;15.60;91.20;;;;;;4954825;28;20027;-84
2021/08/24 11:37:59;;;;;;;10.88;8.35;;;15.60;90.70;;;;;;4960947;28;20059;-82
2021/08/24 11:40:58;;;;;;;9.23;7.80;;;15.50;89.60;;;;;;4948856;28;20041;-82
2021/08/24 11:43:35;;;;;;;8.85;7.57;;;15.50;90.60;;;;;;4940401;28;20145;-82
2021/08/24 11:46:07;;;;;;;10.60;7.60;;;15.50;90.20;;;;;;4969300;28;20077;-83
2021/08/24 11:48:42;;;;;;;14.75;8.85;;;15.40;90.30;;;;;;4966288;28;20035;-83
2021/08/24 11:51:27;;;;;;;11.10;8.50;;;15.50;90.60;;;;;;4955830;28;20031;-83
2021/08/24 11:54:05;;;;;;;11.82;9.05;;;15.40;89.00;;;;;;4948391;29;20027;-83
2021/08/24 11:56:43;;;;;;;11.43;9.02;;;15.40;90.10;;;;;;4982165;28;20451;-83
2021/08/24 11:59:40;;;;;;;10.73;8.88;;;15.40;89.90;;;;;;4959068;28;20531;-83
2021/08/24 12:02:13;;;;;;;11.32;8.15;;;15.50;88.50;;;;;;4957424;28;20135;-84
2021/08/24 12:04:41;;;;;;;10.27;7.90;;;15.40;89.00;;;;;;4967775;28;20030;-84
2021/08/24 12:07:12;;;;;;;11.13;8.55;;;15.40;89.20;;;;;;4975440;28;20019;-84
2021/08/24 12:09:51;;;;;;;9.85;8.82;;;15.50;90.30;;;;;;4954479;28;20396;-83
2021/08/24 12:12:29;;;;;;;9.63;7.32;;;15.50;90.80;;;;;;4960885;28;20443;-83
2021/08/24 12:15:29;;;;;;;8.77;7.82;;;15.60;88.60;;;;;;4958257;28;20043;-84
2021/08/24 12:18:02;;;;;;;8.30;7.40;;;15.70;88.30;;;;;;4955395;28;20058;-83
2021/08/24 12:20:44;;;;;;;11.85;7.78;;;15.70;87.40;;;;;;4960743;28;20034;-83
2021/08/24 12:23:42;;;;;;;9.52;7.78;;;15.70;88.90;;;;;;4958265;28;20098;-83
2021/08/24 12:26:28;;;;;;;8.02;6.30;;;15.80;88.30;;;;;;4950922;28;20482;-83
2021/08/24 12:29:10;;;;;;;8.52;7.03;;;15.90;87.60;;;;;;4957618;28;20098;-82
2021/08/24 12:31:40;;;;;;;7.50;6.22;;;15.90;87.90;;;;;;4952986;28;20035;-83
2021/08/24 12:34:34;;;;;;;9.15;7.32;;;15.90;87.00;;;;;;4959272;28;20027;-83
2021/08/24 12:37:20;;;;;;;7.63;6.63;;;15.90;87.00;;;;;;4966247;28;20080;-83
2021/08/24 12:39:47;;;;;;;8.93;7.72;;;16.00;88.70;;;;;;4937589;28;20125;-83
2021/08/24 12:42:12;;;;;;;7.63;6.30;;;16.00;87.90;;;;;;4948081;28;20031;-83
2021/08/24 12:45:10;;;;;;;6.60;5.18;;;16.10;88.10;;;;;;4950552;28;20043;-83
2021/08/24 12:47:47;;;;;;;7.88;6.75;;;16.30;87.90;;;;;;4944748;28;20335;-83
2021/08/24 12:50:12;;;;;;;7.80;6.72;;;16.40;87.60;;;;;;4949371;28;20484;-83
2021/08/24 12:52:44;;;;;;;6.93;5.97;;;16.50;87.20;;;;;;4953526;28;20034;-83
2021/08/24 12:55:31;;;;;;;7.72;6.93;;;16.50;85.00;;;;;;4958199;28;20024;-83
2021/08/24 12:58:03;;;;;;;9.77;8.32;;;16.60;90.10;;;;;;4955093;28;20039;-84
2021/08/24 13:00:38;;;;;;;8.52;6.32;;;16.90;90.50;;;;;;4940307;28;20031;-83
2021/08/24 13:03:18;;;;;;;6.30;5.57;;;17.00;85.20;;;;;;4966452;28;20105;-83
2021/08/24 13:05:47;;;;;;;5.88;5.30;;;16.90;84.00;;;;;;4962664;28;20035;-83
2021/08/24 13:08:28;;;;;;;5.55;5.05;;;16.80;84.00;;;;;;4967323;28;20515;-83
2021/08/24 13:11:16;;;;;;;5.80;5.20;;;16.80;83.40;;;;;;4949880;28;20045;-83
2021/08/24 13:13:42;;;;;;;5.80;5.20;;;16.90;84.80;;;;;;4930926;28;20087;-84